createdAt,value
2022-09-28T00:01:22.548Z,96236.82
2022-09-28T00:03:53.081Z,96230.44
2022-09-28T00:06:27.213Z,96232.16
2022-09-28T00:08:57.265Z,96223.75
2022-09-28T00:11:28.327Z,96228.70
2022-09-28T00:14:01.546Z,96235.45
2022-09-28T00:16:33.855Z,96230.59
2022-09-28T00:19:02.388Z,96228.02
2022-09-28T00:21:32.528Z,96228.86
2022-09-28T00:24:12.666Z,96228.85
2022-09-28T00:26:51.606Z,96232.33
2022-09-28T00:29:46.031Z,96231.45
2022-09-28T00:32:14.341Z,96227.30
2022-09-28T00:34:46.065Z,96216.80
2022-09-28T00:37:15.274Z,96208.89
2022-09-28T00:39:44.141Z,96211.29
2022-09-28T00:42:18.518Z,96219.21
2022-09-28T00:44:51.704Z,96226.66
2022-09-28T00:47:21.546Z,96229.54
2022-09-28T00:49:51.448Z,96235.48
2022-09-28T00:52:33.721Z,96230.42
2022-09-28T00:55:06.524Z,96227.73
2022-09-28T00:57:36.156Z,96228.54
2022-09-28T01:00:05.967Z,96223.91
2022-09-28T01:02:35.433Z,96226.25
2022-09-28T01:05:07.045Z,96235.54
2022-09-28T01:07:35.789Z,96233.86
2022-09-28T01:10:04.719Z,96235.42
2022-09-28T01:12:32.975Z,96243.11
2022-09-28T01:15:02.297Z,96239.13
2022-09-28T01:18:05.555Z,96235.34
2022-09-28T01:20:47.393Z,96243.52
2022-09-28T01:23:34.756Z,96245.17
2022-09-28T01:26:20.808Z,96247.20
2022-09-28T01:28:57.361Z,96246.08
2022-09-28T01:31:29.945Z,96245.48
2022-09-28T01:34:03.137Z,96246.30
2022-09-28T01:36:42.420Z,96252.20
2022-09-28T01:39:20.208Z,96261.44
2022-09-28T01:41:52.521Z,96258.56
2022-09-28T01:44:23.156Z,96260.08
2022-09-28T01:46:53.568Z,96261.41
2022-09-28T01:49:31.530Z,96260.63
2022-09-28T01:52:07.166Z,96259.27
2022-09-28T01:54:39.123Z,96264.26
2022-09-28T01:57:32.477Z,96264.34
2022-09-28T02:00:07.397Z,96267.89
2022-09-28T02:02:57.969Z,96264.61
2022-09-28T02:05:40.857Z,96257.45
2022-09-28T02:08:16.382Z,96261.00
2022-09-28T02:10:58.866Z,96267.98
2022-09-28T02:13:35.805Z,96264.16
2022-09-28T02:16:17.368Z,96262.29
2022-09-28T02:18:47.237Z,96267.09
2022-09-28T02:21:23.208Z,96266.93
2022-09-28T02:24:02.771Z,96272.15
2022-09-28T02:26:35.812Z,96273.88
2022-09-28T02:29:04.724Z,96275.84
2022-09-28T02:31:32.855Z,96278.35
2022-09-28T02:34:01.572Z,96276.12
2022-09-28T02:36:30.060Z,96277.46
2022-09-28T02:39:02.374Z,96287.07
2022-09-28T02:41:39.648Z,96302.60
2022-09-28T02:44:21.066Z,96301.14
2022-09-28T02:46:57.242Z,96293.81
2022-09-28T02:49:45.810Z,96286.04
2022-09-28T02:52:43.915Z,96280.75
2022-09-28T02:55:56.770Z,96273.19
2022-09-28T02:58:42.623Z,96270.73
2022-09-28T03:01:32.256Z,96271.80
2022-09-28T03:04:31.051Z,96269.38
2022-09-28T03:07:10.857Z,96269.25
2022-09-28T03:09:53.925Z,96273.67
2022-09-28T03:12:24.749Z,96281.79
2022-09-28T03:15:08.222Z,96280.60
2022-09-28T03:17:36.529Z,96284.16
2022-09-28T03:20:05.584Z,96280.41
2022-09-28T03:22:33.716Z,96276.98
2022-09-28T03:25:01.735Z,96280.59
2022-09-28T03:27:30.067Z,96283.38
2022-09-28T03:29:58.134Z,96279.20
2022-09-28T03:32:26.140Z,96294.34
2022-09-28T03:34:54.534Z,96295.34
2022-09-28T03:37:23.377Z,96292.77
2022-09-28T03:39:51.556Z,96291.13
2022-09-28T03:42:19.863Z,96303.77
2022-09-28T03:44:49.892Z,96318.80
2022-09-28T03:47:19.488Z,96319.98
2022-09-28T03:49:47.450Z,96312.08
2022-09-28T03:52:16.486Z,96311.77
2022-09-28T03:54:49.390Z,96327.45
2022-09-28T03:57:17.581Z,96326.56
2022-09-28T03:59:45.615Z,96327.77
2022-09-28T04:02:13.742Z,96330.73
2022-09-28T04:04:43.463Z,96330.61
2022-09-28T04:07:11.386Z,96325.01
2022-09-28T04:09:39.525Z,96324.33
2022-09-28T04:12:07.544Z,96331.65
2022-09-28T04:14:35.534Z,96329.23
2022-09-28T04:17:06.334Z,96330.79
2022-09-28T04:19:37.105Z,96333.17
2022-09-28T04:22:20.750Z,96336.54
2022-09-28T04:24:48.882Z,96339.61
2022-09-28T04:27:35.346Z,96343.14
2022-09-28T04:30:04.189Z,96348.30
2022-09-28T04:32:35.214Z,96347.46
2022-09-28T04:35:03.966Z,96353.46
2022-09-28T04:37:33.846Z,96348.81
2022-09-28T04:40:04.265Z,96344.30
2022-09-28T04:42:33.335Z,96340.59
2022-09-28T04:45:02.344Z,96346.92
2022-09-28T04:47:30.986Z,96352.21
2022-09-28T04:50:17.761Z,96355.96
2022-09-28T04:53:04.660Z,96352.19
2022-09-28T04:55:32.753Z,96353.71
2022-09-28T04:58:04.332Z,96354.55
2022-09-28T05:00:36.071Z,96358.91
2022-09-28T05:03:13.833Z,96371.91
2022-09-28T05:06:13.562Z,96371.33
2022-09-28T05:08:46.994Z,96379.84
2022-09-28T05:11:15.734Z,96384.09
2022-09-28T05:13:45.958Z,96391.06
2022-09-28T05:16:17.113Z,96384.38
2022-09-28T05:19:03.685Z,96377.48
2022-09-28T05:21:31.803Z,96380.39
2022-09-28T05:24:00.229Z,96386.48
2022-09-28T05:26:28.778Z,96390.09
2022-09-28T05:28:56.893Z,96387.42
2022-09-28T05:31:33.841Z,96392.90
2022-09-28T05:34:11.131Z,96389.77
2022-09-28T05:36:40.663Z,96393.81
2022-09-28T05:39:09.838Z,96400.27
2022-09-28T05:41:37.886Z,96401.35
2022-09-28T05:44:06.964Z,96400.35
2022-09-28T05:46:38.891Z,96402.71
2022-09-28T05:49:07.055Z,96400.64
2022-09-28T05:51:37.634Z,96394.61
2022-09-28T05:54:06.407Z,96403.77
2022-09-28T05:56:38.585Z,96410.04
2022-09-28T05:59:10.787Z,96410.73
2022-09-28T06:01:39.497Z,96411.48
2022-09-28T06:04:13.306Z,96420.13
2022-09-28T06:06:48.317Z,96425.59
2022-09-28T06:09:22.652Z,96425.08
2022-09-28T06:12:34.651Z,96423.80
2022-09-28T06:15:10.149Z,96421.67
2022-09-28T06:17:38.767Z,96418.27
2022-09-28T06:20:36.654Z,96408.16
2022-09-28T06:23:13.608Z,96416.37
2022-09-28T06:25:42.720Z,96434.00
2022-09-28T06:28:14.428Z,96437.70
2022-09-28T06:30:44.398Z,96422.80
2022-09-28T06:33:17.280Z,96393.30
2022-09-28T06:35:45.467Z,96387.29
2022-09-28T06:38:13.746Z,96402.95
2022-09-28T06:40:41.978Z,96416.70
2022-09-28T06:43:14.947Z,96417.28
2022-09-28T06:46:10.527Z,96422.54
2022-09-28T06:48:57.445Z,96421.13
2022-09-28T06:51:49.085Z,96423.30
2022-09-28T06:54:25.998Z,96412.13
2022-09-28T06:57:09.932Z,96416.34
2022-09-28T06:59:40.104Z,96415.52
2022-09-28T07:02:14.591Z,96414.67
2022-09-28T07:05:19.479Z,96410.27
2022-09-28T07:08:19.932Z,96405.02
2022-09-28T07:11:29.124Z,96396.94
2022-09-28T07:14:29.415Z,96397.95
2022-09-28T07:17:13.056Z,96401.02
2022-09-28T07:19:42.702Z,96408.23
2022-09-28T07:22:18.839Z,96418.08
2022-09-28T07:24:49.294Z,96418.73
2022-09-28T07:27:41.827Z,96418.39
2022-09-28T07:30:34.869Z,96408.61
2022-09-28T07:33:33.172Z,96427.90
2022-09-28T07:36:22.941Z,96407.03
2022-09-28T07:38:52.694Z,96414.95
2022-09-28T07:41:32.328Z,96425.81
2022-09-28T07:44:06.667Z,96426.98
2022-09-28T07:46:37.318Z,96432.66
2022-09-28T07:49:18.996Z,96435.56
2022-09-28T07:52:19.272Z,96432.33
2022-09-28T07:55:22.636Z,96416.80
2022-09-28T07:58:12.073Z,96410.79
2022-09-28T08:01:08.702Z,96419.70
2022-09-28T08:03:39.174Z,96414.15
2022-09-28T08:06:11.523Z,96418.81
2022-09-28T08:08:46.226Z,96418.11
2022-09-28T08:11:18.943Z,96410.98
2022-09-28T08:14:05.438Z,96420.44
2022-09-28T08:16:56.902Z,96429.75
2022-09-28T08:20:13.263Z,96433.14
2022-09-28T08:22:42.317Z,96431.02
2022-09-28T08:25:12.489Z,96435.21
2022-09-28T08:27:44.895Z,96434.98
2022-09-28T08:30:13.213Z,96437.74
2022-09-28T08:32:50.114Z,96431.09
2022-09-28T08:35:37.538Z,96424.04
2022-09-28T08:38:19.534Z,96421.97
2022-09-28T08:41:24.989Z,96417.50
2022-09-28T08:44:24.480Z,96416.63
2022-09-28T08:47:45.937Z,96418.14
2022-09-28T08:50:49.170Z,96417.06
2022-09-28T08:53:35.134Z,96415.67
2022-09-28T08:56:42.793Z,96410.38
2022-09-28T08:59:17.421Z,96417.41
2022-09-28T09:01:57.975Z,96423.64
2022-09-28T09:08:21.554Z,96430.55
2022-09-28T09:11:51.248Z,96434.31
2022-09-28T09:14:53.727Z,96427.16
2022-09-28T09:17:55.634Z,96427.63
2022-09-28T09:24:39.786Z,96429.71
2022-09-28T09:27:52.432Z,96432.01
2022-09-28T09:31:12.560Z,96438.72
2022-09-28T09:34:15.636Z,96437.94
2022-09-28T09:37:02.314Z,96439.17
2022-09-28T09:40:31.298Z,96443.82
2022-09-28T09:43:50.631Z,96449.05
2022-09-28T09:46:39.821Z,96445.89
2022-09-28T09:49:51.913Z,96446.06
2022-09-28T09:52:48.022Z,96445.26
2022-09-28T09:55:33.556Z,96437.98
2022-09-28T09:58:37.669Z,96435.55
2022-09-28T10:01:37.523Z,96433.94
2022-09-28T10:04:39.565Z,96429.69
2022-09-28T10:07:59.977Z,96433.11
2022-09-28T10:10:40.115Z,96430.66
2022-09-28T10:13:22.200Z,96430.77
2022-09-28T10:15:51.597Z,96431.10
2022-09-28T10:18:52.139Z,96436.12
2022-09-28T10:21:50.569Z,96439.35
2022-09-28T10:24:34.553Z,96442.52
2022-09-28T10:27:35.969Z,96437.60
2022-09-28T10:30:09.985Z,96436.27
2022-09-28T10:32:46.435Z,96441.02
2022-09-28T10:35:40.999Z,96436.60
2022-09-28T10:38:21.258Z,96430.02
2022-09-28T10:40:56.184Z,96429.43
2022-09-28T10:44:11.868Z,96428.74
2022-09-28T10:47:16.169Z,96432.65
2022-09-28T10:49:50.705Z,96434.55
2022-09-28T10:52:39.036Z,96438.89
2022-09-28T10:55:37.618Z,96433.59
2022-09-28T10:58:33.119Z,96431.11
2022-09-28T11:01:10.939Z,96429.77
2022-09-28T11:03:56.319Z,96423.94
2022-09-28T11:07:09.173Z,96419.15
2022-09-28T11:09:50.725Z,96415.40
2022-09-28T11:12:28.118Z,96419.50
2022-09-28T11:15:06.039Z,96413.86
2022-09-28T11:17:40.723Z,96418.77
2022-09-28T11:20:38.144Z,96416.91
2022-09-28T11:23:20.700Z,96414.56
2022-09-28T11:26:18.611Z,96413.11
2022-09-28T11:28:54.673Z,96416.85
2022-09-28T11:31:40.052Z,96412.05
2022-09-28T11:34:31.573Z,96407.41
2022-09-28T11:37:20.781Z,96408.83
2022-09-28T11:40:13.987Z,96412.80
2022-09-28T11:42:55.762Z,96417.02
2022-09-28T11:45:52.291Z,96414.38
2022-09-28T11:48:46.107Z,96413.04
2022-09-28T11:51:31.422Z,96412.85
2022-09-28T11:54:34.084Z,96410.98
2022-09-28T11:57:33.152Z,96410.95
2022-09-28T12:00:15.665Z,96418.06
2022-09-28T12:03:03.692Z,96422.17
2022-09-28T12:09:09.942Z,96416.20
2022-09-28T12:12:10.467Z,96416.17
2022-09-28T12:14:55.407Z,96416.48
2022-09-28T12:17:52.209Z,96418.88
2022-09-28T12:20:24.723Z,96420.66
2022-09-28T12:22:59.986Z,96414.89
2022-09-28T12:25:36.947Z,96423.64
2022-09-28T12:28:23.265Z,96422.56
2022-09-28T12:30:56.548Z,96428.23
2022-09-28T12:33:25.640Z,96433.04
2022-09-28T12:36:10.571Z,96432.52
2022-09-28T12:39:14.753Z,96434.35
2022-09-28T12:41:48.739Z,96432.65
2022-09-28T12:44:46.630Z,96433.97
2022-09-28T12:47:43.387Z,96434.48
2022-09-28T12:50:44.008Z,96440.48
2022-09-28T12:53:47.345Z,96442.98
2022-09-28T12:56:20.926Z,96443.05
2022-09-28T12:59:00.897Z,96444.56
2022-09-28T13:01:55.439Z,96441.17
2022-09-28T13:04:35.676Z,96439.67
2022-09-28T13:07:10.463Z,96437.80
2022-09-28T13:10:03.326Z,96442.08
2022-09-28T13:12:53.881Z,96443.90
2022-09-28T13:15:32.236Z,96448.30
2022-09-28T13:18:24.905Z,96450.63
2022-09-28T13:21:07.711Z,96449.73
2022-09-28T13:23:42.175Z,96442.80
2022-09-28T13:26:19.201Z,96444.74
2022-09-28T13:28:51.487Z,96445.09
2022-09-28T13:31:31.809Z,96445.30
2022-09-28T13:34:03.871Z,96446.98
2022-09-28T13:36:37.152Z,96450.14
2022-09-28T13:39:36.699Z,96452.09
2022-09-28T13:42:07.870Z,96453.40
2022-09-28T13:44:48.098Z,96451.39
2022-09-28T13:47:46.273Z,96451.20
2022-09-28T13:50:29.757Z,96452.56
2022-09-28T13:53:12.927Z,96454.02
2022-09-28T13:55:47.511Z,96454.61
2022-09-28T13:58:30.700Z,96453.15
2022-09-28T14:01:08.287Z,96451.98
2022-09-28T14:03:44.803Z,96452.76
2022-09-28T14:06:25.965Z,96454.70
2022-09-28T14:09:15.288Z,96456.43
2022-09-28T14:11:47.240Z,96455.19
2022-09-28T14:14:25.044Z,96453.53
2022-09-28T14:17:19.675Z,96461.83
2022-09-28T14:20:19.610Z,96459.80
2022-09-28T14:23:09.377Z,96463.05
2022-09-28T14:25:45.187Z,96463.13
2022-09-28T14:28:53.836Z,96466.98
2022-09-28T14:31:29.558Z,96468.15
2022-09-28T14:34:07.140Z,96462.52
2022-09-28T14:37:06.525Z,96459.28
2022-09-28T14:39:56.324Z,96462.08
2022-09-28T14:42:25.893Z,96459.55
2022-09-28T14:45:06.283Z,96458.31
2022-09-28T14:48:12.720Z,96459.30
2022-09-28T14:50:41.020Z,96458.71
2022-09-28T14:53:24.158Z,96462.55
2022-09-28T14:55:58.041Z,96464.84
2022-09-28T14:58:37.610Z,96460.77
2022-09-28T15:01:17.191Z,96461.89
2022-09-28T15:03:48.709Z,96467.27
2022-09-28T15:06:20.428Z,96464.74
2022-09-28T15:08:48.432Z,96462.94
2022-09-28T15:11:25.015Z,96458.73
2022-09-28T15:14:06.631Z,96456.15
2022-09-28T15:16:35.721Z,96456.75
2022-09-28T15:19:17.549Z,96458.91
2022-09-28T15:21:47.892Z,96460.96
2022-09-28T15:24:35.294Z,96459.67
2022-09-28T15:27:15.633Z,96460.28
2022-09-28T15:30:14.584Z,96463.66
2022-09-28T15:32:53.770Z,96464.51
2022-09-28T15:35:26.574Z,96464.89
2022-09-28T15:37:55.796Z,96465.08
2022-09-28T15:40:38.881Z,96466.55
2022-09-28T15:43:22.884Z,96462.42
2022-09-28T15:46:05.093Z,96464.14
2022-09-28T15:48:55.714Z,96467.23
2022-09-28T15:51:26.054Z,96470.91
2022-09-28T15:54:19.737Z,96469.64
2022-09-28T15:57:06.611Z,96469.38
2022-09-28T15:59:38.290Z,96470.17
2022-09-28T16:02:19.276Z,96473.82
2022-09-28T16:04:51.737Z,96475.19
2022-09-28T16:07:38.613Z,96479.52
2022-09-28T16:10:14.042Z,96478.23
2022-09-28T16:12:54.209Z,96481.01
2022-09-28T16:15:31.242Z,96481.88
2022-09-28T16:18:07.000Z,96482.91
2022-09-28T16:20:40.591Z,96483.88
2022-09-28T16:23:31.358Z,96482.17
2022-09-28T16:26:03.580Z,96485.52
2022-09-28T16:28:42.649Z,96487.60
2022-09-28T16:31:15.463Z,96485.65
2022-09-28T16:33:46.866Z,96491.08
2022-09-28T16:36:20.384Z,96488.52
2022-09-28T16:38:49.732Z,96493.19
2022-09-28T16:41:23.742Z,96485.73
2022-09-28T16:44:01.346Z,96488.66
2022-09-28T16:46:36.391Z,96487.83
2022-09-28T16:49:06.931Z,96493.59
2022-09-28T16:51:35.104Z,96492.88
2022-09-28T16:54:39.295Z,96495.36
2022-09-28T16:57:11.321Z,96491.29
2022-09-28T16:59:39.724Z,96491.42
2022-09-28T17:02:42.091Z,96488.54
2022-09-28T17:05:07.310Z,96492.95
2022-09-28T17:07:36.223Z,96491.48
2022-09-28T17:10:16.809Z,96497.11
2022-09-28T17:12:46.153Z,96495.26
2022-09-28T17:15:15.847Z,96496.98
2022-09-28T17:17:43.981Z,96497.80
2022-09-28T17:20:27.366Z,96499.00
2022-09-28T17:22:56.090Z,96496.86
2022-09-28T17:25:26.352Z,96503.83
2022-09-28T17:27:58.590Z,96501.14
2022-09-28T17:30:27.694Z,96501.98
2022-09-28T17:32:57.213Z,96500.38
2022-09-28T17:35:25.871Z,96503.55
2022-09-28T17:37:54.665Z,96501.43
2022-09-28T17:40:29.847Z,96501.39
2022-09-28T17:42:59.823Z,96505.16
2022-09-28T17:45:28.946Z,96505.00
2022-09-28T17:47:57.704Z,96510.27
2022-09-28T17:50:29.769Z,96514.29
2022-09-28T17:52:59.983Z,96513.95
2022-09-28T17:55:31.999Z,96518.46
2022-09-28T17:58:02.569Z,96520.87
2022-09-28T18:00:33.165Z,96521.30
2022-09-28T18:03:01.531Z,96520.95
2022-09-28T18:05:30.516Z,96527.39
2022-09-28T18:07:59.088Z,96529.20
2022-09-28T18:10:30.026Z,96537.23
2022-09-28T18:12:58.048Z,96539.35
2022-09-28T18:15:27.283Z,96541.27
2022-09-28T18:17:55.360Z,96544.00
2022-09-28T18:20:23.983Z,96542.42
2022-09-28T18:22:52.099Z,96544.45
2022-09-28T18:25:20.481Z,96546.15
2022-09-28T18:27:48.536Z,96546.65
2022-09-28T18:30:18.087Z,96546.27
2022-09-28T18:32:46.631Z,96543.69
2022-09-28T18:35:17.406Z,96544.02
2022-09-28T18:37:48.491Z,96547.23
2022-09-28T18:40:16.965Z,96548.56
2022-09-28T18:42:45.807Z,96549.08
2022-09-28T18:45:14.483Z,96544.40
2022-09-28T18:47:43.518Z,96544.60
2022-09-28T18:50:15.623Z,96543.70
2022-09-28T18:52:45.417Z,96540.77
2022-09-28T18:55:13.529Z,96540.15
2022-09-28T18:57:42.556Z,96538.86
2022-09-28T19:00:15.027Z,96536.27
2022-09-28T19:02:43.339Z,96538.48
2022-09-28T19:05:12.492Z,96538.40
2022-09-28T19:07:40.701Z,96544.23
2022-09-28T19:10:08.918Z,96543.46
2022-09-28T19:12:37.926Z,96544.13
2022-09-28T19:15:06.626Z,96545.88
2022-09-28T19:17:34.881Z,96544.52
2022-09-28T19:20:03.516Z,96544.56
2022-09-28T19:22:31.932Z,96545.85
2022-09-28T19:24:59.932Z,96548.67
2022-09-28T19:27:28.115Z,96551.32
2022-09-28T19:29:56.281Z,96552.60
2022-09-28T19:32:24.321Z,96546.29
2022-09-28T19:34:52.457Z,96542.16
2022-09-28T19:37:20.771Z,96541.58
2022-09-28T19:39:53.697Z,96538.98
2022-09-28T19:42:21.615Z,96537.89
2022-09-28T19:44:49.801Z,96533.59
2022-09-28T19:47:21.771Z,96528.41
2022-09-28T19:49:50.960Z,96533.95
2022-09-28T19:52:19.113Z,96530.29
2022-09-28T19:54:58.271Z,96530.95
2022-09-28T19:57:29.497Z,96533.15
2022-09-28T20:00:01.982Z,96534.11
2022-09-28T20:02:34.597Z,96535.73
2022-09-28T20:05:03.576Z,96539.53
2022-09-28T20:07:33.473Z,96536.90
2022-09-28T20:10:01.614Z,96540.48
2022-09-28T20:12:29.687Z,96541.85
2022-09-28T20:14:57.909Z,96541.47
2022-09-28T20:17:26.148Z,96547.27
2022-09-28T20:19:53.998Z,96540.73
2022-09-28T20:22:22.080Z,96542.70
2022-09-28T20:24:50.181Z,96546.73
2022-09-28T20:27:18.256Z,96545.81
2022-09-28T20:29:46.306Z,96544.45
2022-09-28T20:32:14.251Z,96550.65
2022-09-28T20:34:42.221Z,96549.11
2022-09-28T20:37:12.530Z,96550.30
2022-09-28T20:39:44.809Z,96556.09
2022-09-28T20:42:15.879Z,96557.90
2022-09-28T20:44:44.070Z,96560.88
2022-09-28T20:47:12.083Z,96557.23
2022-09-28T20:49:40.260Z,96554.44
2022-09-28T20:52:08.174Z,96552.89
2022-09-28T20:54:37.973Z,96559.86
2022-09-28T20:57:17.702Z,96562.07
2022-09-28T20:59:52.185Z,96566.99
2022-09-28T21:02:22.670Z,96561.67
2022-09-28T21:04:50.862Z,96562.96
2022-09-28T21:07:18.832Z,96563.10
2022-09-28T21:09:46.982Z,96565.45
2022-09-28T21:12:15.541Z,96566.35
2022-09-28T21:14:43.589Z,96570.52
2022-09-28T21:17:11.652Z,96571.40
2022-09-28T21:19:39.615Z,96576.81
2022-09-28T21:22:07.760Z,96572.34
2022-09-28T21:24:35.814Z,96572.17
2022-09-28T21:27:04.019Z,96568.14
2022-09-28T21:29:32.061Z,96568.42
2022-09-28T21:32:00.280Z,96572.61
2022-09-28T21:34:28.345Z,96571.69
2022-09-28T21:36:56.390Z,96577.98
2022-09-28T21:39:24.425Z,96577.52
2022-09-28T21:41:52.385Z,96580.66
2022-09-28T21:44:21.712Z,96586.11
2022-09-28T21:46:49.757Z,96588.95
2022-09-28T21:49:17.705Z,96586.26
2022-09-28T21:51:47.193Z,96586.73
2022-09-28T21:54:15.510Z,96587.62
2022-09-28T21:56:43.500Z,96590.43
2022-09-28T21:59:11.391Z,96590.59
2022-09-28T22:01:40.625Z,96590.55
2022-09-28T22:04:09.605Z,96594.08
2022-09-28T22:06:37.611Z,96588.69
2022-09-28T22:09:05.928Z,96587.40
2022-09-28T22:11:33.978Z,96584.73
2022-09-28T22:14:02.014Z,96584.11
2022-09-28T22:16:31.698Z,96581.39
2022-09-28T22:19:00.560Z,96582.38
2022-09-28T22:21:32.070Z,96588.02
2022-09-28T22:24:02.995Z,96589.89
2022-09-28T22:26:33.676Z,96589.22
2022-09-28T22:29:05.085Z,96593.77
2022-09-28T22:31:36.627Z,96594.10
2022-09-28T22:34:05.648Z,96597.33
2022-09-28T22:36:34.676Z,96591.67
2022-09-28T22:39:03.456Z,96589.80
2022-09-28T22:41:32.365Z,96591.98
2022-09-28T22:44:00.579Z,96592.55
2022-09-28T22:46:32.145Z,96589.80
2022-09-28T22:49:00.537Z,96584.92
2022-09-28T22:51:30.144Z,96584.23
2022-09-28T22:53:58.495Z,96589.04
2022-09-28T22:56:26.914Z,96587.76
2022-09-28T22:58:55.398Z,96587.52
2022-09-28T23:01:26.598Z,96586.77
2022-09-28T23:03:56.256Z,96594.95
2022-09-28T23:06:26.689Z,96589.14
2022-09-28T23:08:54.750Z,96588.62
2022-09-28T23:11:23.334Z,96588.04
2022-09-28T23:13:52.710Z,96582.72
2022-09-28T23:16:23.551Z,96582.34
2022-09-28T23:18:52.658Z,96576.41
2022-09-28T23:21:23.958Z,96580.80
2022-09-28T23:23:58.345Z,96578.13
2022-09-28T23:26:29.092Z,96578.15
2022-09-28T23:28:58.288Z,96571.23
2022-09-28T23:31:31.890Z,96567.58
2022-09-28T23:34:02.646Z,96561.70
2022-09-28T23:36:31.732Z,96569.77
2022-09-28T23:39:00.587Z,96565.67
2022-09-28T23:41:28.963Z,96567.18
2022-09-28T23:43:56.971Z,96563.73
2022-09-28T23:46:25.027Z,96564.86
2022-09-28T23:48:53.093Z,96562.30
2022-09-28T23:51:21.036Z,96552.51
2022-09-28T23:53:49.150Z,96553.98
2022-09-28T23:56:17.143Z,96563.75
2022-09-28T23:58:45.309Z,96565.86
